X  Chiuso Dati meteorologici dell'aviazione (METAR)     LIRF Rome–Fiumicino Leonardo da Vinci International Airport
Temperatura
32°C Temperatura
20°C Punto di rugiada
49% Umidità



Vento
19 KM/O
12 MPH
5 M/S
10 KTS



260°
O
Condizioni attuali

Chiaro Chiaro
Pressione 1012.87 (hPa) - 29.91 (inHg)
Visibilità 6 (miglio) - 9.7 (km)
Aeroporto
Codice-Aeroporto LIRF

Posizione: Rome–Fiumicino Leonardo da Vinci International Airport
Distanza: 65 (km)

Metar:
LIRF 231020Z 26010KT CAVOK 32/20 Q1013 NOSIG

Ore: 23-07-2024 10:20 CEST